Time;durP1;ratioP1;P1;durP2;ratioP2;P2;SDS_P1;SDS_P2;PMS_P1;PMS_P2;Temp;Humidity;BMP_temperature;BMP_pressure;BME280_temperature;BME280_humidity;BME280_pressure;Samples;Min_cycle;Max_cycle;Signal;HPM_P1;HPM_P2
2023/10/16 00:01:18;;;;;;;3.00;0.90;;;;;;;9.66;74.63;99332.92;104387;1260;62708;-70
2023/10/16 00:03:48;;;;;;;2.20;0.90;;;;;;;9.64;74.69;99324.53;104581;1254;60428;-70
2023/10/16 00:06:16;;;;;;;1.70;0.80;;;;;;;9.60;74.72;99315.38;104487;1254;60637;-70
2023/10/16 00:08:47;;;;;;;2.20;0.70;;;;;;;9.55;74.76;99326.92;104459;1258;64957;-70
2023/10/16 00:11:23;;;;;;;2.60;0.70;;;;;;;9.49;74.78;99338.95;104480;1259;59724;-71
2023/10/16 00:13:51;;;;;;;1.80;0.80;;;;;;;9.40;74.81;99334.41;104834;1257;64817;-70
2023/10/16 00:16:21;;;;;;;2.80;0.90;;;;;;;9.37;74.95;99335.31;104549;1254;60404;-70
2023/10/16 00:18:53;;;;;;;1.70;0.60;;;;;;;9.35;74.99;99335.09;104466;1257;59523;-70
2023/10/16 00:21:24;;;;;;;3.10;0.80;;;;;;;9.32;75.09;99330.95;104465;1254;63660;-71
2023/10/16 00:23:54;;;;;;;2.40;0.80;;;;;;;9.31;75.19;99320.31;104430;1254;60273;-70
2023/10/16 00:26:22;;;;;;;2.70;0.80;;;;;;;9.31;75.27;99308.76;104474;1254;62474;-70
2023/10/16 00:31:42;;;;;;;1.50;0.60;;;;;;;9.25;75.46;99318.30;104367;1254;60363;-71
2023/10/16 00:34:19;;;;;;;1.60;0.70;;;;;;;9.24;75.56;99328.19;104376;1259;64895;-71
2023/10/16 00:36:49;;;;;;;1.70;0.60;;;;;;;9.25;75.74;99330.35;104446;1254;60638;-71
2023/10/16 00:39:19;;;;;;;1.30;0.50;;;;;;;9.25;75.80;99323.66;104406;1258;62735;-71
2023/10/16 00:41:50;;;;;;;2.40;0.80;;;;;;;9.25;75.90;99318.06;104634;1254;60706;-71
2023/10/16 00:44:18;;;;;;;2.10;0.50;;;;;;;9.25;76.00;99311.41;104425;1254;60449;-71
2023/10/16 00:46:48;;;;;;;3.40;0.60;;;;;;;9.27;76.21;99311.40;104366;1254;63690;-71
2023/10/16 00:49:18;;;;;;;2.40;0.70;;;;;;;9.29;76.20;99308.92;104382;1260;60640;-71
2023/10/16 00:51:47;;;;;;;0.80;0.50;;;;;;;9.31;76.22;99304.73;104377;1252;63872;-71
2023/10/16 00:54:19;;;;;;;1.30;0.70;;;;;;;9.31;76.27;99299.43;104401;1256;59205;-71
2023/10/16 00:56:51;;;;;;;1.80;0.70;;;;;;;9.30;76.28;99291.09;106570;1253;60495;-71
2023/10/16 00:59:23;;;;;;;1.70;0.60;;;;;;;9.29;76.32;99282.97;104332;1254;67016;-71
2023/10/16 01:02:05;;;;;;;2.20;0.80;;;;;;;9.26;76.32;99275.45;104455;1253;58843;-71
2023/10/16 01:04:32;;;;;;;1.70;0.60;;;;;;;9.23;76.38;99281.41;104434;1253;62465;-71
2023/10/16 01:07:05;;;;;;;2.50;0.70;;;;;;;9.18;76.27;99291.48;104356;1261;60616;-70
2023/10/16 01:09:35;;;;;;;3.70;0.80;;;;;;;9.14;76.21;99297.08;104551;1252;60591;-71
2023/10/16 01:12:07;;;;;;;1.20;0.60;;;;;;;9.13;76.21;99290.04;104542;1260;66067;-71
2023/10/16 01:14:36;;;;;;;2.90;0.80;;;;;;;9.13;76.27;99283.20;104523;1254;67121;-71
2023/10/16 01:17:08;;;;;;;3.40;0.90;;;;;;;9.11;76.28;99279.80;104414;1257;63928;-71
2023/10/16 01:19:37;;;;;;;2.10;0.80;;;;;;;9.10;76.26;99278.73;104654;1257;60440;-71
2023/10/16 01:22:05;;;;;;;2.60;1.00;;;;;;;9.08;76.27;99278.52;104624;1259;60449;-71
2023/10/16 01:24:32;;;;;;;3.00;1.10;;;;;;;9.04;76.22;99276.59;104595;1257;65007;-71
2023/10/16 01:27:14;;;;;;;2.40;0.90;;;;;;;9.00;76.17;99277.19;104468;1254;60521;-71
2023/10/16 01:29:42;;;;;;;4.20;0.90;;;;;;;8.94;76.14;99274.71;104427;1252;62593;-71
2023/10/16 01:32:10;;;;;;;2.10;1.10;;;;;;;8.90;76.13;99277.54;104489;1254;60448;-71
2023/10/16 01:34:41;;;;;;;2.90;1.00;;;;;;;8.89;76.14;99276.05;104477;1254;58984;-70
2023/10/16 01:37:09;;;;;;;4.10;1.10;;;;;;;8.88;76.08;99265.21;104572;1254;63774;-71
2023/10/16 01:39:49;;;;;;;4.00;1.00;;;;;;;8.87;76.05;99249.48;104614;1254;59040;-71
2023/10/16 01:42:18;;;;;;;1.40;0.80;;;;;;;8.84;76.07;99246.79;104474;1257;63853;-71
2023/10/16 01:44:51;;;;;;;2.70;0.80;;;;;;;8.82;75.98;99254.55;104544;1257;60463;-70
2023/10/16 01:47:19;;;;;;;2.50;0.80;;;;;;;8.80;76.05;99267.06;104448;1254;59233;-71
2023/10/16 01:49:50;;;;;;;1.90;0.90;;;;;;;8.78;76.06;99274.37;104536;1254;63625;-71
2023/10/16 01:52:19;;;;;;;2.30;0.90;;;;;;;8.78;76.06;99280.34;104411;1259;60042;-71
2023/10/16 01:54:51;;;;;;;2.50;0.90;;;;;;;8.78;76.17;99283.88;104526;1254;62563;-71
2023/10/16 01:57:21;;;;;;;2.40;0.90;;;;;;;8.75;76.00;99290.77;104464;1254;60455;-71
2023/10/16 01:59:49;;;;;;;1.00;0.70;;;;;;;8.72;76.06;99290.77;104413;1253;59452;-71
2023/10/16 02:02:17;;;;;;;2.70;1.00;;;;;;;8.69;76.10;99284.86;104553;1257;63662;-71
2023/10/16 02:04:45;;;;;;;2.20;1.00;;;;;;;8.68;76.07;99287.56;104589;1259;60482;-71
2023/10/16 02:07:13;;;;;;;1.90;0.80;;;;;;;8.66;75.91;99296.67;104480;1254;62505;-71
2023/10/16 02:09:41;;;;;;;2.00;0.90;;;;;;;8.64;75.92;99312.00;104448;1259;60425;-71
2023/10/16 02:12:14;;;;;;;2.50;0.90;;;;;;;8.61;75.95;99314.66;104386;1254;60334;-71
2023/10/16 02:14:44;;;;;;;2.20;0.90;;;;;;;8.59;76.06;99313.30;104492;1257;64903;-71
2023/10/16 02:17:21;;;;;;;2.00;0.90;;;;;;;8.57;75.99;99315.05;104279;1254;60565;-70
2023/10/16 02:19:50;;;;;;;1.50;1.00;;;;;;;8.54;75.96;99322.70;104407;1258;63758;-70
2023/10/16 02:22:18;;;;;;;1.90;0.80;;;;;;;8.48;75.95;99324.98;104997;1257;59668;-71
2023/10/16 02:24:49;;;;;;;3.60;0.90;;;;;;;8.44;75.95;99328.48;105307;1254;60303;-71
2023/10/16 02:27:21;;;;;;;1.80;0.90;;;;;;;8.43;75.97;99326.96;104720;1257;63650;-71
2023/10/16 02:29:51;;;;;;;4.00;1.10;;;;;;;8.43;76.08;99315.41;104514;1254;60364;-71
2023/10/16 02:32:23;;;;;;;3.20;1.00;;;;;;;8.44;76.11;99305.20;104404;1254;63804;-71
2023/10/16 02:34:51;;;;;;;2.10;1.00;;;;;;;8.43;76.10;99312.11;104355;1258;61517;-71
2023/10/16 02:37:20;;;;;;;2.70;0.90;;;;;;;8.42;76.13;99328.52;104463;1260;59734;-71
2023/10/16 02:39:53;;;;;;;6.80;1.00;;;;;;;8.41;76.10;99344.33;104457;1252;63649;-71
2023/10/16 02:42:27;;;;;;;2.00;0.80;;;;;;;8.41;76.17;99348.77;104433;1254;58909;-71
2023/10/16 02:44:56;;;;;;;2.90;0.90;;;;;;;8.35;76.00;99344.48;105181;1261;62486;-72
2023/10/16 02:47:27;;;;;;;2.40;0.80;;;;;;;8.30;76.01;99341.57;104490;1257;60428;-70
2023/10/16 02:49:56;;;;;;;1.20;0.80;;;;;;;8.24;75.87;99335.61;104532;1255;60023;-71
2023/10/16 02:52:25;;;;;;;2.10;0.70;;;;;;;8.19;75.84;99330.23;104447;1254;64983;-70
2023/10/16 02:54:56;;;;;;;4.20;0.80;;;;;;;8.17;75.98;99329.20;104325;1252;60568;-70
2023/10/16 02:57:27;;;;;;;1.30;0.60;;;;;;;8.17;76.06;99334.52;104405;1254;63772;-71
2023/10/16 02:59:56;;;;;;;1.90;1.00;;;;;;;8.17;76.05;99335.48;104454;1252;59838;-70
2023/10/16 03:02:27;;;;;;;3.70;1.30;;;;;;;8.17;76.00;99329.95;104464;1254;60408;-71
2023/10/16 03:05:10;;;;;;;4.00;1.20;;;;;;;8.15;75.97;99320.67;104411;1257;63667;-71
2023/10/16 03:07:44;;;;;;;3.70;1.30;;;;;;;8.13;76.15;99316.91;104655;1256;60562;-71
2023/10/16 03:10:13;;;;;;;2.80;1.10;;;;;;;8.13;76.14;99312.56;104631;1253;63804;-71
2023/10/16 03:12:42;;;;;;;4.00;1.20;;;;;;;8.11;76.15;99313.11;104502;1258;60613;-70
2023/10/16 03:15:15;;;;;;;2.30;1.20;;;;;;;8.08;76.18;99316.83;104670;1254;60513;-71
2023/10/16 03:17:42;;;;;;;2.50;1.00;;;;;;;8.06;76.27;99319.64;104735;1254;64985;-71
2023/10/16 03:20:20;;;;;;;4.20;1.20;;;;;;;8.06;76.27;99324.77;104649;1259;61173;-71
2023/10/16 03:22:50;;;;;;;2.10;1.00;;;;;;;8.07;76.27;99327.51;104607;1254;63775;-71
2023/10/16 03:28:05;;;;;;;3.20;1.20;;;;;;;8.07;76.28;99325.50;104771;1254;59845;-71
2023/10/16 03:30:33;;;;;;;3.50;1.10;;;;;;;8.06;76.23;99327.20;105147;1252;63758;-71
2023/10/16 03:33:03;;;;;;;3.30;1.20;;;;;;;8.05;76.37;99328.16;104656;1256;66506;-70
2023/10/16 03:35:31;;;;;;;3.60;1.30;;;;;;;8.05;76.42;99333.39;104573;1254;62643;-71
2023/10/16 03:37:59;;;;;;;3.60;1.10;;;;;;;8.06;76.33;99336.52;104781;1254;60610;-70
2023/10/16 03:40:27;;;;;;;3.50;1.20;;;;;;;8.05;76.37;99335.33;104685;1254;61122;-71
2023/10/16 03:42:55;;;;;;;5.80;1.50;;;;;;;8.05;76.34;99339.58;104527;1254;65366;-71
2023/10/16 03:45:23;;;;;;;1.90;0.90;;;;;;;8.03;76.38;99344.83;104428;1253;68046;-71
2023/10/16 03:47:52;;;;;;;2.20;0.90;;;;;;;7.99;76.37;99346.15;104565;1254;62510;-71
2023/10/16 03:50:25;;;;;;;4.20;1.20;;;;;;;7.95;76.41;99349.01;104636;1253;60571;-71
2023/10/16 03:52:56;;;;;;;;;;;;;;;7.94;76.42;99347.69;104763;1252;60039;-71
2023/10/16 03:55:27;;;;;;;2.60;1.10;;;;;;;7.93;76.21;99346.56;104678;1254;63653;-71
2023/10/16 03:57:55;;;;;;;3.10;0.80;;;;;;;7.88;76.14;99348.74;104675;1254;60568;-71
2023/10/16 04:00:27;;;;;;;1.90;1.10;;;;;;;7.85;76.12;99347.73;104532;1253;63716;-71
2023/10/16 04:02:59;;;;;;;4.30;1.00;;;;;;;7.80;75.85;99345.52;104543;1254;61037;-71
2023/10/16 04:05:33;;;;;;;2.80;1.00;;;;;;;7.75;75.72;99349.95;104521;1257;60501;-71
2023/10/16 04:08:01;;;;;;;2.90;1.10;;;;;;;7.69;75.61;99352.00;105291;1253;65131;-71
2023/10/16 04:10:29;;;;;;;2.50;1.30;;;;;;;7.66;75.54;99355.31;104580;1253;59892;-71
2023/10/16 04:12:57;;;;;;;2.10;0.70;;;;;;;7.62;75.52;99352.10;104408;1258;62479;-71
2023/10/16 04:33:44;;;;;;;4.80;0.90;;;;;;;7.42;75.60;99379.69;104560;1259;60620;-70
2023/10/16 04:38:54;;;;;;;3.00;0.80;;;;;;;7.33;75.58;99390.27;104580;1254;60502;-71
2023/10/16 04:44:49;;;;;;;1.90;0.80;;;;;;;7.19;75.45;99390.69;106929;1254;60568;-72
2023/10/16 04:47:16;;;;;;;2.30;0.60;;;;;;;7.14;75.32;99389.88;106912;1253;60747;-71
2023/10/16 04:49:59;;;;;;;3.50;0.70;;;;;;;7.07;75.26;99392.04;106945;1253;65026;-71
2023/10/16 05:11:36;;;;;;;1.00;0.50;;;;;;;6.79;75.02;99424.52;104530;1254;59424;-71
2023/10/16 05:17:06;;;;;;;1.60;0.80;;;;;;;6.78;75.00;99426.89;104475;1254;64917;-72
2023/10/16 06:15:00;;;;;;;3.20;1.10;;;;;;;6.78;75.57;99438.94;104435;1254;60401;-71
2023/10/16 06:17:28;;;;;;;3.90;1.10;;;;;;;6.78;75.48;99447.77;104490;1254;62538;-72
2023/10/16 06:19:56;;;;;;;2.90;1.30;;;;;;;6.78;75.53;99451.77;104544;1259;60450;-71
2023/10/16 06:22:23;;;;;;;2.10;1.10;;;;;;;6.78;75.55;99449.98;104459;1259;60601;-72
2023/10/16 06:24:52;;;;;;;2.80;1.00;;;;;;;6.77;75.55;99455.11;104551;1257;65003;-71
2023/10/16 06:27:19;;;;;;;2.80;1.20;;;;;;;6.76;75.56;99462.23;104578;1254;60572;-70
2023/10/16 06:34:23;;;;;;;2.10;1.00;;;;;;;6.79;75.62;99454.05;104594;1256;58925;-70
2023/10/16 06:36:51;;;;;;;2.40;1.30;;;;;;;6.78;75.66;99453.66;104682;1259;58823;-70
2023/10/16 06:39:28;;;;;;;2.70;1.20;;;;;;;6.76;75.67;99454.86;104446;1254;63869;-70
2023/10/16 06:41:56;;;;;;;1.80;1.10;;;;;;;6.77;75.71;99450.11;104490;1259;58813;-69
2023/10/16 06:44:33;;;;;;;2.90;1.40;;;;;;;6.77;75.66;99447.44;104642;1254;63771;-71
2023/10/16 06:47:01;;;;;;;2.10;1.30;;;;;;;6.79;75.67;99450.81;104571;1254;59088;-69
2023/10/16 06:49:35;;;;;;;9.40;6.10;;;;;;;6.80;75.70;99450.01;104549;1254;60457;-70
2023/10/16 06:52:12;;;;;;;4.40;2.40;;;;;;;6.81;75.75;99452.70;104542;1254;63808;-71
2023/10/16 06:54:41;;;;;;;3.20;2.00;;;;;;;6.82;75.75;99455.74;104662;1253;60466;-70
2023/10/16 06:57:12;;;;;;;3.70;1.70;;;;;;;6.82;75.74;99447.89;104694;1254;66072;-70
2023/10/16 06:59:40;;;;;;;3.50;1.60;;;;;;;6.82;75.72;99438.64;104561;1255;60621;-71
2023/10/16 07:02:15;;;;;;;2.50;1.60;;;;;;;6.84;75.73;99429.00;104616;1253;58969;-71
2023/10/16 07:04:44;;;;;;;2.80;1.50;;;;;;;6.87;75.84;99423.36;104611;1253;67260;-71
2023/10/16 07:07:15;;;;;;;2.70;1.30;;;;;;;6.88;75.84;99430.29;104659;1252;58944;-71
2023/10/16 07:09:51;;;;;;;2.50;1.90;;;;;;;6.89;75.81;99438.09;104557;1254;62496;-71
2023/10/16 07:12:19;;;;;;;3.40;1.40;;;;;;;6.90;75.90;99449.02;104948;1253;60462;-71
2023/10/16 07:15:01;;;;;;;2.40;0.80;;;;;;;6.91;75.89;99454.05;104778;1254;60457;-71
2023/10/16 07:17:28;;;;;;;2.00;1.10;;;;;;;6.92;75.94;99454.83;104348;1254;64929;-71
2023/10/16 07:19:59;;;;;;;1.90;0.90;;;;;;;6.95;75.96;99462.33;104631;1254;58945;-72
2023/10/16 07:22:33;;;;;;;2.30;0.80;;;;;;;6.98;76.01;99464.36;104820;1254;62462;-73
2023/10/16 07:27:48;;;;;;;1.30;0.80;;;;;;;6.97;75.89;99447.11;104742;1257;58867;-74
2023/10/16 07:30:25;;;;;;;2.00;1.00;;;;;;;6.96;75.92;99435.63;104623;1253;63643;-74
2023/10/16 07:32:55;;;;;;;1.50;0.90;;;;;;;7.00;76.05;99438.79;107360;1254;60447;-73
2023/10/16 07:35:23;;;;;;;2.90;1.10;;;;;;;7.04;76.14;99458.77;106935;1253;63744;-72
2023/10/16 07:37:53;;;;;;;2.30;0.70;;;;;;;7.07;76.08;99471.67;104505;1253;58810;-71
2023/10/16 07:40:21;;;;;;;4.90;3.00;;;;;;;7.10;76.06;99465.51;104668;1254;59172;-72
2023/10/16 07:42:52;;;;;;;22.00;17.40;;;;;;;7.12;76.00;99450.95;104800;1254;64923;-70
2023/10/16 07:45:20;;;;;;;5.30;3.00;;;;;;;7.15;76.18;99443.20;104668;1255;59505;-72
2023/10/16 07:47:51;;;;;;;2.20;1.50;;;;;;;7.18;76.20;99429.63;104348;1260;63771;-69
2023/10/16 07:50:19;;;;;;;2.20;1.20;;;;;;;7.23;76.24;99431.70;104519;1256;58944;-74
2023/10/16 07:52:47;;;;;;;1.90;1.00;;;;;;;7.26;76.20;99437.08;107009;1253;59649;-71
2023/10/16 07:55:38;;;;;;;2.00;1.10;;;;;;;7.27;76.15;99438.19;104560;1256;65162;-71
2023/10/16 07:58:16;;;;;;;20.20;15.30;;;;;;;7.29;76.21;99440.33;104818;1253;59043;-73
2023/10/16 08:00:59;;;;;;;10.20;7.80;;;;;;;7.32;76.24;99454.77;104690;1255;63772;-70
2023/10/16 08:03:27;;;;;;;2.60;1.30;;;;;;;7.35;76.27;99469.56;104707;1256;58934;-71
2023/10/16 08:05:55;;;;;;;2.60;1.00;;;;;;;7.38;76.19;99484.90;106929;1253;60390;-70
2023/10/16 08:09:35;;;;;;;1.60;0.80;;;;;;;7.39;76.07;99493.23;105944;1254;65008;-73
2023/10/16 08:11:20;;;;;;;1.70;0.90;;;;;;;7.36;76.02;99488.45;105342;1259;67973;-71
2023/10/16 08:13:51;;;;;;;1.50;0.80;;;;;;;7.38;76.09;99478.63;106949;1252;63769;-71
2023/10/16 08:16:21;;;;;;;1.50;0.70;;;;;;;7.39;76.11;99466.11;104567;1254;60502;-72
2023/10/16 08:18:53;;;;;;;1.50;0.80;;;;;;;7.41;76.18;99482.05;107035;1254;62196;-70
2023/10/16 08:21:28;;;;;;;2.20;0.90;;;;;;;7.41;76.14;99497.66;106874;1254;63635;-70
2023/10/16 08:23:57;;;;;;;1.60;0.80;;;;;;;7.40;76.05;99505.23;106965;1254;60036;-70
2023/10/16 08:26:30;;;;;;;1.40;0.70;;;;;;;7.40;76.12;99498.98;106984;1253;63747;-73
2023/10/16 08:32:05;;;;;;;1.80;0.90;;;;;;;7.42;76.16;99494.58;106837;1252;60374;-70
2023/10/16 08:34:36;;;;;;;1.10;0.70;;;;;;;7.42;76.24;99487.94;106980;1252;67185;-72
2023/10/16 08:37:03;;;;;;;2.40;1.00;;;;;;;7.43;76.25;99490.46;104492;1253;68307;-71
2023/10/16 08:39:36;;;;;;;2.20;0.90;;;;;;;7.44;76.23;99496.70;105190;1256;62628;-72
2023/10/16 08:42:20;;;;;;;1.60;0.90;;;;;;;7.49;76.42;99491.06;105546;1252;59289;-71
2023/10/16 08:44:51;;;;;;;2.20;1.00;;;;;;;7.53;76.53;99480.94;104633;1254;62195;-72
2023/10/16 08:47:24;;;;;;;1.90;1.30;;;;;;;7.55;76.64;99476.55;104479;1254;66057;-71
2023/10/16 08:49:55;;;;;;;3.00;1.20;;;;;;;7.60;76.67;99472.30;107000;1254;60559;-72
2023/10/16 08:52:33;;;;;;;;;;;;;;;7.63;76.57;99472.95;106840;1259;62658;-72
2023/10/16 08:55:14;;;;;;;4.10;2.00;;;;;;;7.64;76.63;99480.23;106823;1254;177128;-74
2023/10/16 08:57:44;;;;;;;4.70;2.60;;;;;;;7.65;76.65;99474.85;106903;1254;60476;-73
2023/10/16 09:00:19;;;;;;;4.10;2.90;;;;;;;7.68;76.65;99471.79;106761;1253;66986;-73
2023/10/16 09:02:51;;;;;;;40.80;33.40;;;;;;;7.73;76.66;99480.64;106968;1254;60460;-72
2023/10/16 09:05:20;;;;;;;11.20;8.20;;;;;;;7.75;76.64;99478.74;106853;1254;63742;-72
2023/10/16 09:07:48;;;;;;;15.00;10.40;;;;;;;7.77;76.64;99480.19;106963;1254;60383;-72
2023/10/16 09:10:21;;;;;;;13.00;8.20;;;;;;;7.80;76.68;99487.10;106936;1257;60810;-72
2023/10/16 09:13:13;;;;;;;13.60;10.70;;;;;;;7.83;76.70;99486.04;106917;1259;65817;-74
2023/10/16 09:15:48;;;;;;;5.90;4.40;;;;;;;7.85;76.70;99487.38;106902;1254;67759;-71
2023/10/16 09:18:15;;;;;;;5.30;3.90;;;;;;;7.86;76.65;99490.31;106775;1259;62535;-71
2023/10/16 09:20:43;;;;;;;5.80;4.10;;;;;;;7.85;76.52;99485.00;106884;1258;61787;-71
2023/10/16 09:23:13;;;;;;;8.20;4.20;;;;;;;7.85;76.74;99474.67;106905;1254;60488;-73
2023/10/16 09:25:44;;;;;;;6.90;4.20;;;;;;;7.86;76.77;99475.79;106704;1254;66757;-72
2023/10/16 09:28:22;;;;;;;6.60;4.10;;;;;;;7.90;76.87;99476.84;106972;1254;60896;-71
2023/10/16 09:30:52;;;;;;;6.30;3.70;;;;;;;7.93;76.99;99480.98;106917;1258;62485;-72
2023/10/16 09:33:39;;;;;;;6.40;3.90;;;;;;;7.94;77.04;99483.14;104459;1253;59513;-75
2023/10/16 09:36:29;;;;;;;5.70;3.40;;;;;;;7.96;77.04;99483.84;104585;1252;60364;-75
2023/10/16 09:38:59;;;;;;;4.90;3.50;;;;;;;8.01;77.18;99480.63;106939;1258;67196;-73
2023/10/16 09:49:24;;;;;;;5.30;4.20;;;;;;;8.10;77.34;99467.98;107013;1254;62165;-73
2023/10/16 09:52:00;;;;;;;8.20;4.60;;;;;;;8.13;77.30;99464.61;106937;1254;63705;-73
2023/10/16 09:54:35;;;;;;;26.70;4.80;;;;;;;8.18;77.40;99470.09;106980;1254;60520;-75
2023/10/16 09:57:06;;;;;;;23.70;9.90;;;;;;;8.25;77.42;99467.39;106833;1254;75336;-73
2023/10/16 09:59:38;;;;;;;12.90;9.80;;;;;;;8.33;77.51;99465.05;106951;1256;60451;-70
2023/10/16 10:02:09;;;;;;;9.90;6.20;;;;;;;8.38;77.45;99458.84;106928;1254;60480;-76
2023/10/16 10:04:44;;;;;;;9.60;4.90;;;;;;;8.42;77.42;99455.63;107007;1252;67186;-73
2023/10/16 10:07:19;;;;;;;6.30;4.40;;;;;;;8.50;77.40;99454.92;106907;1258;60440;-73
2023/10/16 10:09:53;;;;;;;7.30;4.40;;;;;;;8.52;77.24;99451.47;106935;1257;63807;-72
2023/10/16 10:12:33;;;;;;;;;;;;;;;8.50;77.07;99456.20;106893;1253;60363;-73
2023/10/16 10:15:26;;;;;;;8.90;5.20;;;;;;;8.48;77.05;99458.23;106836;1254;60498;-74
2023/10/16 10:17:55;;;;;;;23.50;19.00;;;;;;;8.47;77.02;99465.91;106865;1254;75875;-74
2023/10/16 10:20:25;;;;;;;11.60;7.30;;;;;;;8.47;76.98;99469.77;106885;1253;69187;-74
2023/10/16 10:23:04;;;;;;;8.10;5.50;;;;;;;8.49;76.90;99475.41;106981;1254;63704;-73
2023/10/16 10:25:37;;;;;;;8.50;5.50;;;;;;;8.50;76.91;99480.98;106906;1253;60453;-72
2023/10/16 10:28:18;;;;;;;7.00;5.20;;;;;;;8.49;76.83;99473.64;106903;1253;60479;-73
2023/10/16 10:30:45;;;;;;;9.90;6.10;;;;;;;8.46;76.73;99468.59;106932;1256;66350;-73
2023/10/16 10:33:13;;;;;;;10.50;7.30;;;;;;;8.45;76.69;99464.67;106918;1254;61093;-73
2023/10/16 10:35:43;;;;;;;14.60;7.10;;;;;;;8.46;76.73;99467.21;106895;1254;63880;-73
2023/10/16 10:38:20;;;;;;;11.10;7.10;;;;;;;8.46;76.77;99476.16;106744;1254;61773;-74
2023/10/16 10:41:06;;;;;;;9.90;7.30;;;;;;;8.45;76.71;99480.48;106945;1254;62235;-75
2023/10/16 10:43:46;;;;;;;9.70;7.90;;;;;;;8.43;76.71;99482.05;106907;1254;65157;-74
2023/10/16 10:46:22;;;;;;;12.20;8.30;;;;;;;8.41;76.67;99479.47;106959;1252;60475;-74
2023/10/16 10:48:50;;;;;;;10.60;8.40;;;;;;;8.43;76.78;99479.61;106901;1259;74841;-72
2023/10/16 10:51:18;;;;;;;13.10;7.30;;;;;;;8.49;76.84;99476.79;106930;1254;60463;-73
2023/10/16 10:53:54;;;;;;;13.10;8.10;;;;;;;8.56;76.88;99481.67;106766;1254;60492;-72
2023/10/16 10:56:22;;;;;;;13.00;8.60;;;;;;;8.62;76.88;99485.02;106730;1254;67357;-74
2023/10/16 10:58:49;;;;;;;11.20;9.20;;;;;;;8.72;77.14;99486.10;107015;1254;67881;-74
2023/10/16 11:01:26;;;;;;;29.70;23.00;;;;;;;8.83;77.14;99492.30;106915;1254;73657;-74
2023/10/16 11:03:55;;;;;;;14.00;9.30;;;;;;;8.94;77.13;99491.34;106942;1254;60555;-75
2023/10/16 11:06:38;;;;;;;12.90;9.10;;;;;;;9.06;77.08;99488.55;106924;1254;60418;-75
2023/10/16 11:09:12;;;;;;;18.20;9.60;;;;;;;9.22;77.15;99490.50;106943;1254;74839;-76
2023/10/16 11:11:39;;;;;;;13.60;9.40;;;;;;;9.42;77.31;99484.72;106974;1254;60537;-78
2023/10/16 11:14:07;;;;;;;52.10;10.70;;;;;;;9.69;77.58;99482.09;106985;1253;63838;-78
2023/10/16 11:16:43;;;;;;;14.00;8.90;;;;;;;9.95;76.83;99478.12;106921;1254;59250;-75
2023/10/16 11:19:10;;;;;;;10.20;7.50;;;;;;;10.10;75.70;99479.94;106939;1254;60530;-75
2023/10/16 11:21:47;;;;;;;103.30;11.90;;;;;;;10.19;75.00;99482.60;106916;1254;75896;-74
2023/10/16 11:24:15;;;;;;;14.80;7.90;;;;;;;10.29;74.87;99483.45;106905;1254;60470;-75
2023/10/16 11:26:45;;;;;;;10.70;6.60;;;;;;;10.42;74.91;99486.48;106973;1254;63733;-74
2023/10/16 11:29:13;;;;;;;11.70;6.60;;;;;;;10.53;74.32;99487.63;106920;1254;60463;-75
2023/10/16 11:31:41;;;;;;;63.40;8.00;;;;;;;10.58;73.89;99491.49;106924;1254;60412;-77
2023/10/16 11:34:12;;;;;;;10.10;5.60;;;;;;;10.61;72.75;99494.04;106972;1254;75941;-77
2023/10/16 11:36:40;;;;;;;43.30;5.90;;;;;;;10.60;71.57;99497.81;106930;1252;67216;-76
2023/10/16 11:39:19;;;;;;;14.60;5.20;;;;;;;10.60;70.24;99502.43;106913;1254;63752;-75
2023/10/16 11:41:48;;;;;;;13.90;7.60;;;;;;;10.53;69.04;99503.44;106931;1254;60472;-78
2023/10/16 11:44:16;;;;;;;8.70;3.90;;;;;;;10.46;67.73;99507.23;106797;1254;60339;-72
2023/10/16 11:46:45;;;;;;;8.30;2.60;;;;;;;10.46;67.15;99510.27;106895;1254;64901;-78
2023/10/16 11:49:21;;;;;;;8.90;2.60;;;;;;;10.47;66.61;99513.67;106960;1254;68091;-77
2023/10/16 11:51:54;;;;;;;8.50;2.90;;;;;;;10.47;65.96;99511.20;106924;1253;63766;-77
2023/10/16 11:54:25;;;;;;;8.10;2.70;;;;;;;10.49;65.91;99510.83;106938;1252;60382;-76
2023/10/16 11:56:59;;;;;;;8.30;2.80;;;;;;;10.53;65.67;99518.56;106932;1253;60535;-77
2023/10/16 11:59:28;;;;;;;8.50;2.10;;;;;;;10.54;64.73;99518.02;106884;1253;63678;-78
2023/10/16 12:02:11;;;;;;;8.80;1.90;;;;;;;10.56;64.45;99516.19;107140;1254;59368;-74
2023/10/16 12:04:42;;;;;;;8.30;2.40;;;;;;;10.56;63.24;99513.69;104428;1254;63982;-76
2023/10/16 12:07:14;;;;;;;7.40;2.30;;;;;;;10.53;62.19;99513.09;106935;1253;60482;-76
2023/10/16 12:09:42;;;;;;;7.40;2.40;;;;;;;10.51;62.43;99519.93;106913;1253;59200;-77
2023/10/16 12:12:19;;;;;;;9.90;2.80;;;;;;;10.53;62.52;99522.61;106949;1258;66099;-76
2023/10/16 12:14:48;;;;;;;24.20;3.10;;;;;;;10.56;61.94;99526.75;106933;1256;60399;-76
2023/10/16 12:17:19;;;;;;;10.90;2.70;;;;;;;10.56;61.08;99530.05;106927;1256;74905;-77
2023/10/16 12:19:47;;;;;;;12.90;2.40;;;;;;;10.58;61.09;99533.21;106944;1254;60091;-77
2023/10/16 12:22:20;;;;;;;6.00;2.10;;;;;;;10.63;61.42;99536.33;106923;1252;60968;-76
2023/10/16 12:24:49;;;;;;;4.60;2.00;;;;;;;10.67;60.74;99537.73;106912;1252;63774;-77
2023/10/16 12:27:17;;;;;;;11.70;2.60;;;;;;;10.68;60.24;99539.73;106886;1254;60540;-77
2023/10/16 12:29:45;;;;;;;8.90;2.40;;;;;;;10.69;60.30;99537.66;106968;1254;62457;-78
2023/10/16 12:32:12;;;;;;;11.50;2.70;;;;;;;10.69;58.84;99538.36;106943;1255;63830;-76
2023/10/16 12:34:43;;;;;;;7.30;2.50;;;;;;;10.66;58.79;99542.58;107011;1254;59684;-71
2023/10/16 12:41:44;;;;;;;9.60;2.20;;;;;;;10.62;59.05;99543.98;108347;1254;60644;-71
2023/10/16 12:44:12;;;;;;;11.70;2.20;;;;;;;10.61;58.85;99546.16;104612;1255;66136;-71
2023/10/16 12:46:43;;;;;;;10.60;2.60;;;;;;;10.63;59.14;99549.73;106930;1254;58505;-73
2023/10/16 12:49:11;;;;;;;11.10;3.40;;;;;;;10.69;59.27;99550.33;107010;1254;60665;-74
2023/10/16 12:51:38;;;;;;;27.90;6.90;;;;;;;10.76;59.20;99553.19;106962;1254;64934;-74
2023/10/16 12:54:06;;;;;;;10.20;3.40;;;;;;;10.83;59.31;99559.46;107026;1259;60575;-77
2023/10/16 12:56:35;;;;;;;7.00;3.00;;;;;;;10.88;59.00;99559.80;106991;1254;73835;-74
2023/10/16 12:59:03;;;;;;;10.90;5.50;;;;;;;10.95;58.96;99558.70;106933;1254;60562;-73
2023/10/16 13:01:31;;;;;;;12.10;6.90;;;;;;;11.02;58.91;99562.63;106923;1254;62205;-74
2023/10/16 13:04:01;;;;;;;10.30;5.40;;;;;;;11.04;58.11;99558.70;106899;1252;76506;-74
2023/10/16 13:06:30;;;;;;;5.70;2.70;;;;;;;11.01;58.05;99565.16;106990;1254;69141;-73
2023/10/16 13:08:57;;;;;;;9.50;2.80;;;;;;;10.95;57.46;99567.31;107007;1256;74839;-74
2023/10/16 13:11:25;;;;;;;5.90;2.50;;;;;;;10.86;57.24;99567.40;106899;1254;60581;-72
2023/10/16 13:13:55;;;;;;;6.50;2.10;;;;;;;10.82;57.77;99569.54;106974;1254;60443;-72
2023/10/16 13:16:27;;;;;;;7.60;2.90;;;;;;;10.81;57.88;99568.98;106912;1258;76008;-73
2023/10/16 13:18:57;;;;;;;6.90;2.80;;;;;;;10.76;57.52;99568.52;106933;1258;69195;-73
2023/10/16 13:21:35;;;;;;;7.80;2.50;;;;;;;10.71;57.32;99574.96;106917;1254;64800;-73
2023/10/16 13:24:09;;;;;;;8.00;2.50;;;;;;;10.72;57.48;99572.09;106960;1252;62616;-73
2023/10/16 13:26:37;;;;;;;7.10;2.50;;;;;;;10.76;57.52;99574.91;106979;1259;59180;-73
2023/10/16 13:29:08;;;;;;;8.30;2.90;;;;;;;10.84;58.13;99576.09;106914;1253;63694;-73
2023/10/16 13:31:45;;;;;;;5.70;2.30;;;;;;;11.03;58.47;99576.73;106938;1253;69392;-73
2023/10/16 13:34:13;;;;;;;7.30;2.40;;;;;;;11.16;57.55;99574.80;106922;1254;65950;-75
2023/10/16 13:36:56;;;;;;;9.30;3.10;;;;;;;11.16;56.53;99574.23;106874;1254;60581;-73
2023/10/16 13:39:31;;;;;;;12.70;3.10;;;;;;;11.12;56.62;99581.52;106954;1254;58532;-73
2023/10/16 13:41:59;;;;;;;9.60;4.00;;;;;;;11.08;56.73;99586.13;106954;1256;75974;-72
2023/10/16 13:44:28;;;;;;;15.30;9.00;;;;;;;11.04;56.03;99592.52;106786;1254;60470;-71
2023/10/16 13:46:59;;;;;;;10.00;3.60;;;;;;;10.92;55.56;99599.10;107013;1256;65152;-72
2023/10/16 13:49:28;;;;;;;9.00;2.40;;;;;;;10.80;55.46;99598.95;106918;1254;59281;-72
2023/10/16 13:51:56;;;;;;;6.30;2.10;;;;;;;10.71;55.11;99599.97;106897;1254;60313;-74
2023/10/16 13:54:24;;;;;;;6.60;2.30;;;;;;;10.64;55.08;99607.02;106923;1254;76057;-71
2023/10/16 13:56:52;;;;;;;7.30;2.30;;;;;;;10.59;55.39;99609.88;106962;1254;60463;-71
2023/10/16 13:59:19;;;;;;;7.00;2.40;;;;;;;10.56;55.43;99610.71;106885;1254;64459;-70